sensor_id;sensor_type;location;lat;lon;timestamp;P1;durP1;ratioP1;P2;durP2;ratioP2
18544;SDS011;9402;51.460;7.276;2023-06-22T00:01:25;16.53;;;6.20;;
18544;SDS011;9402;51.460;7.276;2023-06-22T00:03:27;6.80;;;5.33;;
18544;SDS011;9402;51.460;7.276;2023-06-22T00:05:30;12.23;;;5.60;;
18544;SDS011;9402;51.460;7.276;2023-06-22T00:07:31;7.30;;;5.30;;
18544;SDS011;9402;51.460;7.276;2023-06-22T00:09:33;6.70;;;5.03;;
18544;SDS011;9402;51.460;7.276;2023-06-22T00:11:35;7.13;;;5.77;;
18544;SDS011;9402;51.460;7.276;2023-06-22T00:13:37;11.30;;;5.57;;
18544;SDS011;9402;51.460;7.276;2023-06-22T00:15:39;8.90;;;5.20;;
18544;SDS011;9402;51.460;7.276;2023-06-22T00:17:41;9.77;;;5.27;;
18544;SDS011;9402;51.460;7.276;2023-06-22T00:19:43;8.93;;;5.50;;
18544;SDS011;9402;51.460;7.276;2023-06-22T00:21:49;7.53;;;5.30;;
18544;SDS011;9402;51.460;7.276;2023-06-22T00:23:52;7.50;;;5.93;;
18544;SDS011;9402;51.460;7.276;2023-06-22T00:25:54;8.80;;;5.20;;
18544;SDS011;9402;51.460;7.276;2023-06-22T00:27:55;8.77;;;5.93;;
18544;SDS011;9402;51.460;7.276;2023-06-22T00:29:57;8.47;;;5.90;;
18544;SDS011;9402;51.460;7.276;2023-06-22T00:31:59;8.70;;;6.37;;
18544;SDS011;9402;51.460;7.276;2023-06-22T00:34:00;13.20;;;5.87;;
18544;SDS011;9402;51.460;7.276;2023-06-22T00:36:02;11.07;;;6.87;;
18544;SDS011;9402;51.460;7.276;2023-06-22T00:38:05;11.77;;;7.37;;
18544;SDS011;9402;51.460;7.276;2023-06-22T00:40:08;10.93;;;6.97;;
18544;SDS011;9402;51.460;7.276;2023-06-22T00:42:12;16.23;;;7.97;;
18544;SDS011;9402;51.460;7.276;2023-06-22T00:44:13;12.40;;;6.90;;
18544;SDS011;9402;51.460;7.276;2023-06-22T00:46:15;11.10;;;7.70;;
18544;SDS011;9402;51.460;7.276;2023-06-22T00:48:16;8.23;;;6.40;;
18544;SDS011;9402;51.460;7.276;2023-06-22T00:50:19;7.10;;;6.20;;
18544;SDS011;9402;51.460;7.276;2023-06-22T00:52:24;13.07;;;8.17;;
18544;SDS011;9402;51.460;7.276;2023-06-22T00:54:30;13.57;;;7.53;;
18544;SDS011;9402;51.460;7.276;2023-06-22T00:56:32;9.60;;;6.60;;
18544;SDS011;9402;51.460;7.276;2023-06-22T00:58:33;9.73;;;7.40;;
18544;SDS011;9402;51.460;7.276;2023-06-22T01:00:36;9.50;;;7.07;;
18544;SDS011;9402;51.460;7.276;2023-06-22T01:02:38;10.13;;;7.97;;
18544;SDS011;9402;51.460;7.276;2023-06-22T01:04:41;8.97;;;7.50;;
18544;SDS011;9402;51.460;7.276;2023-06-22T01:06:45;14.20;;;8.10;;
18544;SDS011;9402;51.460;7.276;2023-06-22T01:08:48;13.50;;;8.10;;
18544;SDS011;9402;51.460;7.276;2023-06-22T01:10:55;14.63;;;7.70;;
18544;SDS011;9402;51.460;7.276;2023-06-22T01:13:03;8.87;;;7.03;;
18544;SDS011;9402;51.460;7.276;2023-06-22T01:15:08;11.00;;;7.67;;
18544;SDS011;9402;51.460;7.276;2023-06-22T01:17:11;11.93;;;6.70;;
18544;SDS011;9402;51.460;7.276;2023-06-22T01:19:20;9.10;;;6.43;;
18544;SDS011;9402;51.460;7.276;2023-06-22T01:21:30;12.80;;;8.00;;
18544;SDS011;9402;51.460;7.276;2023-06-22T01:23:33;9.53;;;7.63;;
18544;SDS011;9402;51.460;7.276;2023-06-22T01:25:46;10.37;;;7.87;;
18544;SDS011;9402;51.460;7.276;2023-06-22T01:27:53;9.93;;;6.50;;
18544;SDS011;9402;51.460;7.276;2023-06-22T01:30:03;8.50;;;6.63;;
18544;SDS011;9402;51.460;7.276;2023-06-22T01:32:07;9.93;;;7.40;;
18544;SDS011;9402;51.460;7.276;2023-06-22T01:34:08;8.93;;;7.00;;
18544;SDS011;9402;51.460;7.276;2023-06-22T01:36:11;12.97;;;8.43;;
18544;SDS011;9402;51.460;7.276;2023-06-22T01:38:12;13.00;;;8.30;;
18544;SDS011;9402;51.460;7.276;2023-06-22T01:40:14;13.13;;;8.20;;
18544;SDS011;9402;51.460;7.276;2023-06-22T01:42:16;12.87;;;8.50;;
18544;SDS011;9402;51.460;7.276;2023-06-22T01:44:18;9.93;;;8.33;;
18544;SDS011;9402;51.460;7.276;2023-06-22T01:46:21;11.23;;;8.23;;
18544;SDS011;9402;51.460;7.276;2023-06-22T01:48:22;10.33;;;7.70;;
18544;SDS011;9402;51.460;7.276;2023-06-22T01:50:26;11.67;;;7.43;;
18544;SDS011;9402;51.460;7.276;2023-06-22T01:52:27;9.13;;;7.77;;
18544;SDS011;9402;51.460;7.276;2023-06-22T01:54:29;9.43;;;7.60;;
18544;SDS011;9402;51.460;7.276;2023-06-22T01:56:30;13.07;;;8.30;;
18544;SDS011;9402;51.460;7.276;2023-06-22T01:58:32;9.03;;;7.50;;
18544;SDS011;9402;51.460;7.276;2023-06-22T02:00:36;9.43;;;8.40;;
18544;SDS011;9402;51.460;7.276;2023-06-22T02:02:48;10.53;;;8.33;;
18544;SDS011;9402;51.460;7.276;2023-06-22T02:04:55;13.00;;;9.17;;
18544;SDS011;9402;51.460;7.276;2023-06-22T02:06:58;13.70;;;9.00;;
18544;SDS011;9402;51.460;7.276;2023-06-22T02:09:02;11.10;;;8.80;;
18544;SDS011;9402;51.460;7.276;2023-06-22T02:11:04;13.40;;;8.20;;
18544;SDS011;9402;51.460;7.276;2023-06-22T02:13:07;8.63;;;7.10;;
18544;SDS011;9402;51.460;7.276;2023-06-22T02:15:10;11.53;;;7.20;;
18544;SDS011;9402;51.460;7.276;2023-06-22T02:17:14;11.70;;;7.43;;
18544;SDS011;9402;51.460;7.276;2023-06-22T02:19:17;12.10;;;7.33;;
18544;SDS011;9402;51.460;7.276;2023-06-22T02:21:19;10.43;;;7.40;;
18544;SDS011;9402;51.460;7.276;2023-06-22T02:23:21;10.97;;;8.13;;
18544;SDS011;9402;51.460;7.276;2023-06-22T02:25:22;14.73;;;8.27;;
18544;SDS011;9402;51.460;7.276;2023-06-22T02:27:24;10.37;;;8.37;;
18544;SDS011;9402;51.460;7.276;2023-06-22T02:29:25;14.77;;;8.23;;
18544;SDS011;9402;51.460;7.276;2023-06-22T02:31:27;11.63;;;7.83;;
18544;SDS011;9402;51.460;7.276;2023-06-22T02:33:30;9.50;;;8.43;;
18544;SDS011;9402;51.460;7.276;2023-06-22T02:35:33;10.40;;;8.13;;
18544;SDS011;9402;51.460;7.276;2023-06-22T02:37:35;10.90;;;7.60;;
18544;SDS011;9402;51.460;7.276;2023-06-22T02:39:38;10.67;;;8.23;;
18544;SDS011;9402;51.460;7.276;2023-06-22T02:41:40;13.67;;;8.70;;
18544;SDS011;9402;51.460;7.276;2023-06-22T02:43:42;13.03;;;8.77;;
18544;SDS011;9402;51.460;7.276;2023-06-22T02:45:43;13.60;;;8.80;;
18544;SDS011;9402;51.460;7.276;2023-06-22T02:47:45;11.30;;;9.17;;
18544;SDS011;9402;51.460;7.276;2023-06-22T02:49:47;14.20;;;8.43;;
18544;SDS011;9402;51.460;7.276;2023-06-22T02:51:50;18.27;;;9.03;;
18544;SDS011;9402;51.460;7.276;2023-06-22T02:53:52;14.40;;;8.70;;
18544;SDS011;9402;51.460;7.276;2023-06-22T02:55:57;10.93;;;8.17;;
18544;SDS011;9402;51.460;7.276;2023-06-22T02:58:01;16.90;;;8.90;;
18544;SDS011;9402;51.460;7.276;2023-06-22T03:00:05;12.70;;;8.07;;
18544;SDS011;9402;51.460;7.276;2023-06-22T03:02:16;9.60;;;8.00;;
18544;SDS011;9402;51.460;7.276;2023-06-22T03:04:21;11.33;;;8.30;;
18544;SDS011;9402;51.460;7.276;2023-06-22T03:06:23;10.63;;;7.63;;
18544;SDS011;9402;51.460;7.276;2023-06-22T03:08:29;10.40;;;7.20;;
18544;SDS011;9402;51.460;7.276;2023-06-22T03:10:31;14.20;;;8.70;;
18544;SDS011;9402;51.460;7.276;2023-06-22T03:12:33;14.83;;;10.43;;
18544;SDS011;9402;51.460;7.276;2023-06-22T03:14:34;9.50;;;8.03;;
18544;SDS011;9402;51.460;7.276;2023-06-22T03:16:36;18.10;;;11.00;;
18544;SDS011;9402;51.460;7.276;2023-06-22T03:18:37;14.40;;;10.23;;
18544;SDS011;9402;51.460;7.276;2023-06-22T03:20:39;12.10;;;10.30;;
18544;SDS011;9402;51.460;7.276;2023-06-22T03:22:41;20.17;;;11.90;;
18544;SDS011;9402;51.460;7.276;2023-06-22T03:24:45;16.10;;;11.53;;
18544;SDS011;9402;51.460;7.276;2023-06-22T03:26:46;13.97;;;10.90;;
18544;SDS011;9402;51.460;7.276;2023-06-22T03:28:48;16.87;;;11.40;;
18544;SDS011;9402;51.460;7.276;2023-06-22T03:30:50;18.47;;;12.13;;
18544;SDS011;9402;51.460;7.276;2023-06-22T03:32:51;18.50;;;13.00;;
18544;SDS011;9402;51.460;7.276;2023-06-22T03:34:53;21.33;;;13.37;;
18544;SDS011;9402;51.460;7.276;2023-06-22T03:36:58;20.50;;;14.03;;
18544;SDS011;9402;51.460;7.276;2023-06-22T03:39:00;16.40;;;13.47;;
18544;SDS011;9402;51.460;7.276;2023-06-22T03:41:03;28.20;;;13.83;;
18544;SDS011;9402;51.460;7.276;2023-06-22T03:43:05;14.83;;;12.47;;
18544;SDS011;9402;51.460;7.276;2023-06-22T03:45:06;18.50;;;14.00;;
18544;SDS011;9402;51.460;7.276;2023-06-22T03:47:09;22.30;;;13.47;;
18544;SDS011;9402;51.460;7.276;2023-06-22T03:49:10;19.00;;;13.77;;
18544;SDS011;9402;51.460;7.276;2023-06-22T03:51:12;20.93;;;14.33;;
18544;SDS011;9402;51.460;7.276;2023-06-22T03:53:14;16.53;;;12.87;;
18544;SDS011;9402;51.460;7.276;2023-06-22T03:55:15;18.13;;;13.30;;
18544;SDS011;9402;51.460;7.276;2023-06-22T03:57:18;16.90;;;13.30;;
18544;SDS011;9402;51.460;7.276;2023-06-22T03:59:20;19.03;;;14.13;;
18544;SDS011;9402;51.460;7.276;2023-06-22T04:01:21;19.70;;;14.10;;
18544;SDS011;9402;51.460;7.276;2023-06-22T04:03:23;16.97;;;13.47;;
18544;SDS011;9402;51.460;7.276;2023-06-22T04:05:25;18.53;;;12.90;;
18544;SDS011;9402;51.460;7.276;2023-06-22T04:07:26;24.37;;;14.43;;
18544;SDS011;9402;51.460;7.276;2023-06-22T04:09:28;24.67;;;13.70;;
18544;SDS011;9402;51.460;7.276;2023-06-22T04:11:29;23.30;;;13.67;;
18544;SDS011;9402;51.460;7.276;2023-06-22T04:13:32;20.30;;;14.70;;
18544;SDS011;9402;51.460;7.276;2023-06-22T04:15:34;20.00;;;14.03;;
18544;SDS011;9402;51.460;7.276;2023-06-22T04:17:36;16.90;;;12.40;;
18544;SDS011;9402;51.460;7.276;2023-06-22T04:19:37;20.63;;;15.00;;
18544;SDS011;9402;51.460;7.276;2023-06-22T04:21:39;17.83;;;13.63;;
18544;SDS011;9402;51.460;7.276;2023-06-22T04:23:40;20.30;;;14.83;;
18544;SDS011;9402;51.460;7.276;2023-06-22T04:25:43;18.20;;;14.63;;
18544;SDS011;9402;51.460;7.276;2023-06-22T04:27:44;18.77;;;16.10;;
18544;SDS011;9402;51.460;7.276;2023-06-22T04:29:47;19.50;;;15.67;;
18544;SDS011;9402;51.460;7.276;2023-06-22T04:31:51;18.67;;;15.27;;
18544;SDS011;9402;51.460;7.276;2023-06-22T04:33:53;22.33;;;15.07;;
18544;SDS011;9402;51.460;7.276;2023-06-22T04:35:54;23.23;;;15.40;;
18544;SDS011;9402;51.460;7.276;2023-06-22T04:37:57;24.50;;;15.67;;
18544;SDS011;9402;51.460;7.276;2023-06-22T04:39:59;16.97;;;14.10;;
18544;SDS011;9402;51.460;7.276;2023-06-22T04:42:01;21.40;;;14.47;;
18544;SDS011;9402;51.460;7.276;2023-06-22T04:44:03;17.87;;;15.40;;
18544;SDS011;9402;51.460;7.276;2023-06-22T04:46:06;19.63;;;15.23;;
18544;SDS011;9402;51.460;7.276;2023-06-22T04:48:08;24.93;;;17.23;;
18544;SDS011;9402;51.460;7.276;2023-06-22T04:50:09;21.00;;;16.00;;
18544;SDS011;9402;51.460;7.276;2023-06-22T04:52:12;20.97;;;16.40;;
18544;SDS011;9402;51.460;7.276;2023-06-22T04:54:20;20.83;;;16.30;;
18544;SDS011;9402;51.460;7.276;2023-06-22T04:56:21;23.40;;;15.40;;
18544;SDS011;9402;51.460;7.276;2023-06-22T04:58:28;23.00;;;16.40;;
18544;SDS011;9402;51.460;7.276;2023-06-22T05:00:32;27.20;;;17.43;;
18544;SDS011;9402;51.460;7.276;2023-06-22T05:02:37;21.60;;;15.30;;
18544;SDS011;9402;51.460;7.276;2023-06-22T05:04:39;20.83;;;16.67;;
18544;SDS011;9402;51.460;7.276;2023-06-22T05:06:41;20.47;;;15.77;;
18544;SDS011;9402;51.460;7.276;2023-06-22T05:08:42;20.53;;;15.70;;
18544;SDS011;9402;51.460;7.276;2023-06-22T05:10:44;22.23;;;17.37;;
18544;SDS011;9402;51.460;7.276;2023-06-22T05:12:45;22.93;;;16.00;;
18544;SDS011;9402;51.460;7.276;2023-06-22T05:14:47;25.83;;;17.37;;
18544;SDS011;9402;51.460;7.276;2023-06-22T05:16:49;27.30;;;16.93;;
18544;SDS011;9402;51.460;7.276;2023-06-22T05:18:53;25.40;;;16.83;;
18544;SDS011;9402;51.460;7.276;2023-06-22T05:20:55;20.77;;;14.80;;
18544;SDS011;9402;51.460;7.276;2023-06-22T05:22:57;18.23;;;14.40;;
18544;SDS011;9402;51.460;7.276;2023-06-22T05:24:58;21.27;;;15.80;;
18544;SDS011;9402;51.460;7.276;2023-06-22T05:27:00;20.50;;;14.83;;
18544;SDS011;9402;51.460;7.276;2023-06-22T05:29:02;23.23;;;17.20;;
18544;SDS011;9402;51.460;7.276;2023-06-22T05:31:04;30.53;;;16.67;;
18544;SDS011;9402;51.460;7.276;2023-06-22T05:33:05;24.50;;;15.23;;
18544;SDS011;9402;51.460;7.276;2023-06-22T05:35:08;18.53;;;14.50;;
18544;SDS011;9402;51.460;7.276;2023-06-22T05:37:10;23.50;;;15.13;;
18544;SDS011;9402;51.460;7.276;2023-06-22T05:39:13;18.43;;;14.77;;
18544;SDS011;9402;51.460;7.276;2023-06-22T05:41:15;28.97;;;16.80;;
18544;SDS011;9402;51.460;7.276;2023-06-22T05:43:16;20.33;;;14.13;;
18544;SDS011;9402;51.460;7.276;2023-06-22T05:45:18;19.17;;;14.10;;
18544;SDS011;9402;51.460;7.276;2023-06-22T05:47:19;20.73;;;13.20;;
18544;SDS011;9402;51.460;7.276;2023-06-22T05:49:22;28.43;;;13.57;;
18544;SDS011;9402;51.460;7.276;2023-06-22T05:51:30;21.83;;;14.37;;
18544;SDS011;9402;51.460;7.276;2023-06-22T05:53:32;19.67;;;13.03;;
18544;SDS011;9402;51.460;7.276;2023-06-22T05:55:34;21.70;;;13.93;;
18544;SDS011;9402;51.460;7.276;2023-06-22T05:57:35;18.73;;;14.27;;
18544;SDS011;9402;51.460;7.276;2023-06-22T05:59:37;17.50;;;12.80;;
18544;SDS011;9402;51.460;7.276;2023-06-22T06:01:38;19.83;;;12.03;;
18544;SDS011;9402;51.460;7.276;2023-06-22T06:03:40;15.67;;;12.60;;
18544;SDS011;9402;51.460;7.276;2023-06-22T06:05:42;15.43;;;12.57;;
18544;SDS011;9402;51.460;7.276;2023-06-22T06:07:45;15.70;;;12.27;;
18544;SDS011;9402;51.460;7.276;2023-06-22T06:09:47;16.67;;;11.83;;
18544;SDS011;9402;51.460;7.276;2023-06-22T06:11:49;14.10;;;10.97;;
18544;SDS011;9402;51.460;7.276;2023-06-22T06:13:50;19.97;;;12.13;;
18544;SDS011;9402;51.460;7.276;2023-06-22T06:15:52;17.63;;;12.30;;
18544;SDS011;9402;51.460;7.276;2023-06-22T06:17:55;14.93;;;11.00;;
18544;SDS011;9402;51.460;7.276;2023-06-22T06:19:56;14.10;;;10.50;;
18544;SDS011;9402;51.460;7.276;2023-06-22T06:21:59;17.13;;;11.67;;
18544;SDS011;9402;51.460;7.276;2023-06-22T06:24:02;22.13;;;12.27;;
18544;SDS011;9402;51.460;7.276;2023-06-22T06:26:04;14.30;;;11.07;;
18544;SDS011;9402;51.460;7.276;2023-06-22T06:28:07;16.00;;;12.13;;
18544;SDS011;9402;51.460;7.276;2023-06-22T06:30:09;16.57;;;11.80;;
18544;SDS011;9402;51.460;7.276;2023-06-22T06:32:11;15.77;;;11.23;;
18544;SDS011;9402;51.460;7.276;2023-06-22T06:34:13;14.80;;;11.50;;
18544;SDS011;9402;51.460;7.276;2023-06-22T06:36:15;18.23;;;12.37;;
18544;SDS011;9402;51.460;7.276;2023-06-22T06:38:16;22.03;;;12.33;;
18544;SDS011;9402;51.460;7.276;2023-06-22T06:40:19;16.17;;;11.90;;
18544;SDS011;9402;51.460;7.276;2023-06-22T06:42:21;16.40;;;11.87;;
18544;SDS011;9402;51.460;7.276;2023-06-22T06:44:24;23.07;;;12.70;;
18544;SDS011;9402;51.460;7.276;2023-06-22T06:46:25;14.30;;;10.57;;
18544;SDS011;9402;51.460;7.276;2023-06-22T06:48:27;23.80;;;13.20;;
18544;SDS011;9402;51.460;7.276;2023-06-22T06:50:28;15.50;;;12.60;;
18544;SDS011;9402;51.460;7.276;2023-06-22T06:52:30;15.27;;;11.50;;
18544;SDS011;9402;51.460;7.276;2023-06-22T06:54:32;13.93;;;11.80;;
18544;SDS011;9402;51.460;7.276;2023-06-22T06:56:35;17.13;;;11.80;;
18544;SDS011;9402;51.460;7.276;2023-06-22T06:58:38;26.50;;;12.73;;
18544;SDS011;9402;51.460;7.276;2023-06-22T07:00:40;15.13;;;12.27;;
18544;SDS011;9402;51.460;7.276;2023-06-22T07:02:43;18.00;;;11.87;;
18544;SDS011;9402;51.460;7.276;2023-06-22T07:04:45;16.10;;;11.43;;
18544;SDS011;9402;51.460;7.276;2023-06-22T07:06:47;15.03;;;11.57;;
18544;SDS011;9402;51.460;7.276;2023-06-22T07:08:48;14.40;;;11.83;;
18544;SDS011;9402;51.460;7.276;2023-06-22T07:10:50;18.27;;;14.17;;
18544;SDS011;9402;51.460;7.276;2023-06-22T07:12:54;19.20;;;13.00;;
18544;SDS011;9402;51.460;7.276;2023-06-22T07:15:00;15.93;;;12.20;;
18544;SDS011;9402;51.460;7.276;2023-06-22T07:17:03;17.00;;;12.87;;
18544;SDS011;9402;51.460;7.276;2023-06-22T07:19:05;17.00;;;13.60;;
18544;SDS011;9402;51.460;7.276;2023-06-22T07:21:06;20.50;;;13.60;;
18544;SDS011;9402;51.460;7.276;2023-06-22T07:23:08;21.63;;;13.03;;
18544;SDS011;9402;51.460;7.276;2023-06-22T07:25:09;25.30;;;14.00;;
18544;SDS011;9402;51.460;7.276;2023-06-22T07:27:14;19.33;;;13.73;;
18544;SDS011;9402;51.460;7.276;2023-06-22T07:29:20;18.63;;;13.90;;
18544;SDS011;9402;51.460;7.276;2023-06-22T07:31:23;25.53;;;13.90;;
18544;SDS011;9402;51.460;7.276;2023-06-22T07:33:25;20.10;;;14.57;;
18544;SDS011;9402;51.460;7.276;2023-06-22T07:35:27;18.43;;;15.00;;
18544;SDS011;9402;51.460;7.276;2023-06-22T07:37:29;24.13;;;15.20;;
18544;SDS011;9402;51.460;7.276;2023-06-22T07:39:31;32.30;;;15.67;;
18544;SDS011;9402;51.460;7.276;2023-06-22T07:41:32;27.73;;;18.43;;
18544;SDS011;9402;51.460;7.276;2023-06-22T07:43:34;24.93;;;18.40;;
18544;SDS011;9402;51.460;7.276;2023-06-22T07:45:38;35.13;;;19.73;;
18544;SDS011;9402;51.460;7.276;2023-06-22T07:47:42;35.53;;;20.67;;
18544;SDS011;9402;51.460;7.276;2023-06-22T07:49:43;30.30;;;22.30;;
18544;SDS011;9402;51.460;7.276;2023-06-22T07:51:45;29.80;;;21.83;;
18544;SDS011;9402;51.460;7.276;2023-06-22T07:53:46;34.00;;;22.40;;
18544;SDS011;9402;51.460;7.276;2023-06-22T07:55:48;33.37;;;23.13;;
18544;SDS011;9402;51.460;7.276;2023-06-22T07:57:49;36.10;;;25.50;;
18544;SDS011;9402;51.460;7.276;2023-06-22T07:59:52;32.70;;;24.77;;
18544;SDS011;9402;51.460;7.276;2023-06-22T08:01:54;33.60;;;23.40;;
18544;SDS011;9402;51.460;7.276;2023-06-22T08:03:56;27.40;;;22.00;;
18544;SDS011;9402;51.460;7.276;2023-06-22T08:05:58;28.37;;;24.00;;
18544;SDS011;9402;51.460;7.276;2023-06-22T08:07:59;33.80;;;24.70;;
18544;SDS011;9402;51.460;7.276;2023-06-22T08:10:01;33.57;;;23.50;;
18544;SDS011;9402;51.460;7.276;2023-06-22T08:12:03;36.10;;;24.13;;
18544;SDS011;9402;51.460;7.276;2023-06-22T08:14:05;35.43;;;27.50;;
18544;SDS011;9402;51.460;7.276;2023-06-22T08:16:06;36.00;;;22.50;;
18544;SDS011;9402;51.460;7.276;2023-06-22T08:18:09;32.80;;;22.77;;
18544;SDS011;9402;51.460;7.276;2023-06-22T08:20:11;30.20;;;24.40;;
18544;SDS011;9402;51.460;7.276;2023-06-22T08:22:13;36.37;;;25.33;;
18544;SDS011;9402;51.460;7.276;2023-06-22T08:24:14;40.50;;;26.77;;
18544;SDS011;9402;51.460;7.276;2023-06-22T08:26:16;37.93;;;22.70;;
18544;SDS011;9402;51.460;7.276;2023-06-22T08:28:17;32.17;;;22.10;;
18544;SDS011;9402;51.460;7.276;2023-06-22T08:30:19;33.17;;;24.70;;
18544;SDS011;9402;51.460;7.276;2023-06-22T08:32:21;36.83;;;25.40;;
18544;SDS011;9402;51.460;7.276;2023-06-22T08:34:24;31.17;;;24.47;;
18544;SDS011;9402;51.460;7.276;2023-06-22T08:36:28;37.60;;;26.10;;
18544;SDS011;9402;51.460;7.276;2023-06-22T08:38:32;31.50;;;23.63;;
18544;SDS011;9402;51.460;7.276;2023-06-22T08:40:34;34.37;;;23.33;;
18544;SDS011;9402;51.460;7.276;2023-06-22T08:42:36;37.00;;;26.87;;
18544;SDS011;9402;51.460;7.276;2023-06-22T08:44:37;33.90;;;23.63;;
18544;SDS011;9402;51.460;7.276;2023-06-22T08:46:39;32.50;;;27.00;;
18544;SDS011;9402;51.460;7.276;2023-06-22T08:48:41;34.60;;;24.30;;
18544;SDS011;9402;51.460;7.276;2023-06-22T08:50:44;33.57;;;24.90;;
18544;SDS011;9402;51.460;7.276;2023-06-22T08:52:46;31.83;;;24.70;;
18544;SDS011;9402;51.460;7.276;2023-06-22T08:54:48;40.77;;;24.80;;
18544;SDS011;9402;51.460;7.276;2023-06-22T08:56:49;32.33;;;24.80;;
18544;SDS011;9402;51.460;7.276;2023-06-22T08:58:51;30.37;;;25.30;;
18544;SDS011;9402;51.460;7.276;2023-06-22T09:00:52;32.43;;;23.80;;
18544;SDS011;9402;51.460;7.276;2023-06-22T09:02:54;38.93;;;25.90;;
18544;SDS011;9402;51.460;7.276;2023-06-22T09:04:59;33.20;;;26.47;;
18544;SDS011;9402;51.460;7.276;2023-06-22T09:07:02;28.90;;;22.93;;
18544;SDS011;9402;51.460;7.276;2023-06-22T09:09:04;39.23;;;25.20;;
18544;SDS011;9402;51.460;7.276;2023-06-22T09:11:06;30.53;;;24.73;;
18544;SDS011;9402;51.460;7.276;2023-06-22T09:13:08;33.40;;;24.17;;
18544;SDS011;9402;51.460;7.276;2023-06-22T09:15:09;31.03;;;23.87;;
18544;SDS011;9402;51.460;7.276;2023-06-22T09:17:11;28.13;;;23.83;;
18544;SDS011;9402;51.460;7.276;2023-06-22T09:19:13;28.17;;;23.00;;
18544;SDS011;9402;51.460;7.276;2023-06-22T09:21:15;31.90;;;22.23;;
18544;SDS011;9402;51.460;7.276;2023-06-22T09:23:18;31.80;;;23.47;;
18544;SDS011;9402;51.460;7.276;2023-06-22T09:25:19;30.87;;;23.23;;
18544;SDS011;9402;51.460;7.276;2023-06-22T09:27:21;35.73;;;21.33;;
18544;SDS011;9402;51.460;7.276;2023-06-22T09:29:24;27.30;;;19.67;;
18544;SDS011;9402;51.460;7.276;2023-06-22T09:31:25;20.27;;;17.50;;
18544;SDS011;9402;51.460;7.276;2023-06-22T09:33:27;19.03;;;15.13;;
18544;SDS011;9402;51.460;7.276;2023-06-22T09:35:28;21.87;;;15.53;;
18544;SDS011;9402;51.460;7.276;2023-06-22T09:37:30;17.60;;;15.30;;
18544;SDS011;9402;51.460;7.276;2023-06-22T09:39:33;21.73;;;14.60;;
18544;SDS011;9402;51.460;7.276;2023-06-22T09:41:34;16.67;;;14.53;;
18544;SDS011;9402;51.460;7.276;2023-06-22T09:43:36;17.10;;;14.10;;
18544;SDS011;9402;51.460;7.276;2023-06-22T09:45:38;13.33;;;11.93;;
18544;SDS011;9402;51.460;7.276;2023-06-22T09:47:39;18.23;;;11.17;;
18544;SDS011;9402;51.460;7.276;2023-06-22T09:49:41;14.57;;;10.07;;
18544;SDS011;9402;51.460;7.276;2023-06-22T09:51:43;13.50;;;10.27;;
18544;SDS011;9402;51.460;7.276;2023-06-22T09:53:44;11.73;;;10.50;;
18544;SDS011;9402;51.460;7.276;2023-06-22T09:55:48;14.10;;;9.70;;
18544;SDS011;9402;51.460;7.276;2023-06-22T09:57:49;12.70;;;10.80;;
18544;SDS011;9402;51.460;7.276;2023-06-22T09:59:51;10.60;;;9.53;;
18544;SDS011;9402;51.460;7.276;2023-06-22T10:01:52;13.40;;;9.60;;
18544;SDS011;9402;51.460;7.276;2023-06-22T10:03:55;10.33;;;9.27;;
18544;SDS011;9402;51.460;7.276;2023-06-22T10:08:38;10.47;;;9.40;;
18544;SDS011;9402;51.460;7.276;2023-06-22T10:10:49;9.40;;;8.50;;
18544;SDS011;9402;51.460;7.276;2023-06-22T10:12:54;14.53;;;8.23;;
18544;SDS011;9402;51.460;7.276;2023-06-22T10:14:57;15.33;;;9.63;;
18544;SDS011;9402;51.460;7.276;2023-06-22T10:16:59;11.43;;;9.70;;
18544;SDS011;9402;51.460;7.276;2023-06-22T10:19:00;10.47;;;9.27;;
18544;SDS011;9402;51.460;7.276;2023-06-22T10:21:02;11.40;;;9.40;;
18544;SDS011;9402;51.460;7.276;2023-06-22T10:23:03;9.40;;;8.47;;
18544;SDS011;9402;51.460;7.276;2023-06-22T10:25:06;11.40;;;9.10;;
18544;SDS011;9402;51.460;7.276;2023-06-22T10:27:10;16.43;;;8.27;;
18544;SDS011;9402;51.460;7.276;2023-06-22T10:29:11;12.00;;;8.60;;
18544;SDS011;9402;51.460;7.276;2023-06-22T10:31:13;13.07;;;9.70;;
18544;SDS011;9402;51.460;7.276;2023-06-22T10:33:16;13.57;;;8.50;;
18544;SDS011;9402;51.460;7.276;2023-06-22T10:35:18;14.13;;;8.60;;
18544;SDS011;9402;51.460;7.276;2023-06-22T10:37:19;15.00;;;10.10;;
18544;SDS011;9402;51.460;7.276;2023-06-22T10:39:21;12.50;;;9.40;;
18544;SDS011;9402;51.460;7.276;2023-06-22T10:41:22;20.77;;;9.07;;
18544;SDS011;9402;51.460;7.276;2023-06-22T10:43:25;9.53;;;8.50;;
18544;SDS011;9402;51.460;7.276;2023-06-22T10:45:27;11.03;;;9.87;;
18544;SDS011;9402;51.460;7.276;2023-06-22T10:47:29;10.53;;;8.60;;
18544;SDS011;9402;51.460;7.276;2023-06-22T10:49:30;16.23;;;10.47;;
18544;SDS011;9402;51.460;7.276;2023-06-22T10:51:32;11.50;;;8.73;;
18544;SDS011;9402;51.460;7.276;2023-06-22T10:53:33;13.40;;;10.30;;
18544;SDS011;9402;51.460;7.276;2023-06-22T10:55:35;13.03;;;10.13;;
18544;SDS011;9402;51.460;7.276;2023-06-22T10:57:37;11.97;;;10.23;;
18544;SDS011;9402;51.460;7.276;2023-06-22T10:59:44;11.53;;;10.10;;
18544;SDS011;9402;51.460;7.276;2023-06-22T11:01:46;18.53;;;10.43;;
18544;SDS011;9402;51.460;7.276;2023-06-22T11:03:47;11.23;;;9.80;;
18544;SDS011;9402;51.460;7.276;2023-06-22T11:05:49;9.37;;;8.47;;
18544;SDS011;9402;51.460;7.276;2023-06-22T11:07:50;10.10;;;8.90;;
18544;SDS011;9402;51.460;7.276;2023-06-22T11:09:52;13.37;;;9.60;;
18544;SDS011;9402;51.460;7.276;2023-06-22T11:11:55;12.40;;;9.53;;
18544;SDS011;9402;51.460;7.276;2023-06-22T11:13:58;9.47;;;8.53;;
18544;SDS011;9402;51.460;7.276;2023-06-22T11:16:01;22.03;;;12.80;;
18544;SDS011;9402;51.460;7.276;2023-06-22T11:18:03;19.20;;;13.87;;
18544;SDS011;9402;51.460;7.276;2023-06-22T11:20:07;14.33;;;12.77;;
18544;SDS011;9402;51.460;7.276;2023-06-22T11:22:10;16.80;;;12.50;;
18544;SDS011;9402;51.460;7.276;2023-06-22T11:24:12;19.80;;;13.80;;
18544;SDS011;9402;51.460;7.276;2023-06-22T11:26:14;16.30;;;13.80;;
18544;SDS011;9402;51.460;7.276;2023-06-22T11:28:15;17.90;;;13.20;;
18544;SDS011;9402;51.460;7.276;2023-06-22T11:30:17;38.33;;;13.80;;
18544;SDS011;9402;51.460;7.276;2023-06-22T11:32:21;21.07;;;16.30;;
18544;SDS011;9402;51.460;7.276;2023-06-22T11:34:23;17.77;;;14.77;;
18544;SDS011;9402;51.460;7.276;2023-06-22T11:36:25;19.53;;;15.20;;
18544;SDS011;9402;51.460;7.276;2023-06-22T11:38:27;21.20;;;17.03;;
18544;SDS011;9402;51.460;7.276;2023-06-22T11:40:28;24.70;;;20.27;;
18544;SDS011;9402;51.460;7.276;2023-06-22T11:42:30;27.07;;;21.03;;
18544;SDS011;9402;51.460;7.276;2023-06-22T11:44:32;26.00;;;19.13;;
18544;SDS011;9402;51.460;7.276;2023-06-22T11:46:33;27.13;;;20.97;;
18544;SDS011;9402;51.460;7.276;2023-06-22T11:48:36;29.97;;;22.67;;
18544;SDS011;9402;51.460;7.276;2023-06-22T11:50:38;31.83;;;23.27;;
18544;SDS011;9402;51.460;7.276;2023-06-22T11:52:40;29.93;;;22.83;;
18544;SDS011;9402;51.460;7.276;2023-06-22T11:54:41;30.57;;;26.23;;
18544;SDS011;9402;51.460;7.276;2023-06-22T11:56:43;38.70;;;28.63;;
18544;SDS011;9402;51.460;7.276;2023-06-22T11:58:44;41.13;;;29.27;;
18544;SDS011;9402;51.460;7.276;2023-06-22T12:00:46;49.47;;;32.50;;
18544;SDS011;9402;51.460;7.276;2023-06-22T12:02:47;53.50;;;33.30;;
18544;SDS011;9402;51.460;7.276;2023-06-22T12:04:50;52.53;;;36.97;;
18544;SDS011;9402;51.460;7.276;2023-06-22T12:06:54;59.37;;;33.60;;
18544;SDS011;9402;51.460;7.276;2023-06-22T12:08:56;60.17;;;40.13;;
18544;SDS011;9402;51.460;7.276;2023-06-22T12:10:57;61.53;;;43.07;;
18544;SDS011;9402;51.460;7.276;2023-06-22T12:12:59;64.27;;;38.87;;
18544;SDS011;9402;51.460;7.276;2023-06-22T12:15:01;51.23;;;37.47;;